Weather reports worldwide

Advertisment
Wisley, United Kingdom (99080): temperature & dewpoint: 30.07.2020 03:00:00 - 05.08.2020 03:00:00 (BST)Wisley, United Kingdom (99080): temperature -20cm: 30.07.2020 03:00:00 - 05.08.2020 03:00:00 (BST)Wisley, United Kingdom (99080): wind speed: 30.07.2020 03:00:00 - 05.08.2020 03:00:00 (BST)Wisley, United Kingdom (99080): wind direction: 30.07.2020 03:00:00 - 05.08.2020 03:00:00 (BST)Wisley, United Kingdom (99080): precipitation: 30.07.2020 03:00:00 - 05.08.2020 03:00:00 (BST)
Date & Time tt [°C] td [°C] tt -20cm [°C] ff [km/h] ff [kn] dd rr [mm]
05.08.2020 03:00:00 14,7 12,8 - 9 5 SSW -
05.08.2020 02:00:00 14,8 12,3 - 9 5 SSW 0,0
05.08.2020 01:00:00 15,2 12,1 - 9 5 SSW 0,0
05.08.2020 00:00:00 15,4 11,9 - 8 4 SSW 0,0
04.08.2020 23:00:00 15,2 11,6 - 11 6 SSW 0,0
04.08.2020 22:00:00 15,7 11,2 - 9 5 S 0,0
04.08.2020 21:00:00 16,6 11,4 - 13 7 SSW 0,0
04.08.2020 20:00:00 18,4 11,3 - 15 8 SSW 0,0
04.08.2020 19:00:00 20,0 10,8 - 16 9 SW 0,0
04.08.2020 18:00:00 21,2 10,5 - 16 9 SW 0,0
04.08.2020 17:00:00 22,0 9,6 - 16 9 SSW 0,0
04.08.2020 16:00:00 20,9 8,4 - 13 7 SW 0,0
04.08.2020 15:00:00 22,5 7,2 - 13 7 SW 0,0
04.08.2020 14:00:00 21,3 6,7 - 13 7 SW 0,0
04.08.2020 13:00:00 22,4 6,5 - 11 6 WSW 0,0
04.08.2020 12:00:00 21,7 7,0 - 13 7 SW 0,0
04.08.2020 11:00:00 21,1 8,8 - 11 6 SW 0,0
04.08.2020 10:00:00 19,1 10,4 19,7 11 6 WSW 0,0
04.08.2020 09:00:00 17,7 13,4 - 11 6 SSW 0,0
04.08.2020 08:00:00 13,1 10,2 - 4 2 WSW 0,0
04.08.2020 07:00:00 9,5 9,4 - 2 1 W 0,0
04.08.2020 06:00:00 6,9 6,7 - 4 2 W 0,0
04.08.2020 05:00:00 6,8 6,3 - 2 1 S 0,0
04.08.2020 04:00:00 7,7 7,1 - 2 1 SSW 0,0
04.08.2020 03:00:00 8,5 7,7 - 4 2 S 0,0
04.08.2020 02:00:00 8,9 7,7 - 4 2 SSE 0,0
04.08.2020 01:00:00 10,2 8,0 - 5 3 SSE 0,0
04.08.2020 00:00:00 11,9 8,8 - 4 2 SE 0,0
03.08.2020 23:00:00 12,4 8,6 - 4 2 NNW 0,0
03.08.2020 22:00:00 13,9 7,8 - 4 2 N 0,0
03.08.2020 21:00:00 17,6 7,7 - 9 5 NNW 0,0
03.08.2020 20:00:00 20,1 6,8 - 13 7 NNW 0,0
03.08.2020 19:00:00 19,7 6,7 - 9 5 NNW 0,0
03.08.2020 18:00:00 20,7 5,3 - 11 6 NNW 0,0
03.08.2020 17:00:00 22,2 6,7 - 11 6 NW 0,0
03.08.2020 16:00:00 21,8 5,2 - 11 6 NW 0,0
03.08.2020 15:00:00 21,9 7,7 - 13 7 NNW 0,0
03.08.2020 14:00:00 21,2 7,3 - 13 7 NNW 0,0
03.08.2020 13:00:00 19,5 6,7 - 13 7 NNW 0,0
03.08.2020 12:00:00 20,2 9,4 - 11 6 NNW 0,0
03.08.2020 11:00:00 18,8 8,5 - 13 7 NNW 0,0
03.08.2020 10:00:00 19,0 11,1 20,2 9 5 NNW 0,0
03.08.2020 09:00:00 16,7 10,0 - 11 6 NNW 0,0
03.08.2020 08:00:00 13,8 11,1 - 5 3 NW 0,0
03.08.2020 07:00:00 11,6 11,3 - 4 2 W 0,0
03.08.2020 06:00:00 10,4 9,7 - 4 2 W 0,0
03.08.2020 05:00:00 11,5 10,2 - 5 3 WNW 0,0
03.08.2020 04:00:00 13,8 10,8 - 4 2 NW 0,0
03.08.2020 03:00:00 14,4 11,1 - 5 3 W 0,0
03.08.2020 02:00:00 14,8 10,5 - 4 2 WNW 0,0
03.08.2020 01:00:00 15,9 9,9 - 8 4 WNW 0,0
03.08.2020 00:00:00 16,4 12,0 - 5 3 W 0,0
02.08.2020 23:00:00 16,9 12,6 - 5 3 WSW 0,0
02.08.2020 22:00:00 17,6 12,3 - 9 5 WSW 0,0
02.08.2020 21:00:00 18,1 11,8 - 9 5 WSW 0,0
02.08.2020 20:00:00 18,9 12,5 - 11 6 WSW 0,0
02.08.2020 19:00:00 20,2 11,7 - 13 7 SW 0,0
02.08.2020 18:00:00 20,4 12,1 - 16 9 SW 0,0
02.08.2020 17:00:00 22,9 8,3 - 11 6 WSW 0,0
02.08.2020 16:00:00 24,2 9,7 - 13 7 WSW 0,0
02.08.2020 15:00:00 21,8 9,9 - 13 7 WNW 0,0
02.08.2020 14:00:00 22,8 10,2 - 11 6 WSW 0,0
02.08.2020 13:00:00 21,9 10,2 - 11 6 W 0,0
02.08.2020 12:00:00 21,2 10,9 - 13 7 WSW 0,0
02.08.2020 11:00:00 21,3 12,1 - 13 7 WSW 0,0
02.08.2020 10:00:00 18,6 11,2 20,2 11 6 WSW 0,0
02.08.2020 09:00:00 17,2 12,4 - 9 5 WSW 0,0
02.08.2020 08:00:00 14,8 11,7 - 8 4 WSW 0,0
02.08.2020 07:00:00 12,2 11,2 - 5 3 WSW 0,0
02.08.2020 06:00:00 10,3 9,3 - 8 4 WSW 0,0
02.08.2020 05:00:00 10,7 9,2 - 8 4 WSW 0,0
02.08.2020 04:00:00 11,3 8,9 - 5 3 WSW 0,0
02.08.2020 03:00:00 13,2 9,3 - 8 4 WSW 0,0
02.08.2020 02:00:00 14,7 10,3 - 9 5 W 0,0
02.08.2020 01:00:00 14,5 10,3 - 5 3 W 0,0
02.08.2020 00:00:00 15,8 10,2 - 11 6 W 0,0
01.08.2020 23:00:00 17,5 11,4 - 13 7 W 0,0
01.08.2020 22:00:00 18,6 11,7 - 9 5 W 0,0
01.08.2020 21:00:00 19,8 11,4 - 15 8 W 0,0
01.08.2020 20:00:00 21,8 11,9 - 9 5 W 0,0
01.08.2020 19:00:00 22,5 11,9 - 11 6 WSW 0,0
01.08.2020 18:00:00 23,4 13,0 - 9 5 W 0,0
01.08.2020 17:00:00 23,9 14,6 - 11 6 WSW 0,0
01.08.2020 16:00:00 23,5 13,6 - 9 5 WSW 0,0
01.08.2020 15:00:00 25,0 13,5 - 9 5 W 0,0
01.08.2020 14:00:00 24,2 12,6 - 15 8 W 0,0
01.08.2020 13:00:00 23,5 12,4 - 11 6 WSW 0,0
01.08.2020 12:00:00 22,2 12,6 - 15 8 W 0,0
01.08.2020 11:00:00 21,4 13,0 - 13 7 W 0,0
01.08.2020 10:00:00 20,7 13,1 20,7 9 5 WSW 0,0
01.08.2020 09:00:00 20,0 14,0 - 9 5 WSW 0,0
01.08.2020 08:00:00 17,6 14,0 - 8 4 W 0,0
01.08.2020 07:00:00 16,0 14,3 - 5 3 WSW 0,0
01.08.2020 06:00:00 13,9 12,6 - 5 3 SSW 0,0
01.08.2020 05:00:00 15,9 13,0 - 8 4 W 0,0
01.08.2020 04:00:00 17,7 13,4 - 9 5 W 0,0
01.08.2020 03:00:00 18,6 15,6 - 8 4 W 0,0
01.08.2020 02:00:00 18,9 17,4 - 8 4 WSW 0,0
01.08.2020 01:00:00 18,8 17,2 - 8 4 SW 0,0
01.08.2020 00:00:00 19,2 17,1 - 8 4 SSW 0,0
31.07.2020 23:00:00 19,5 16,9 - 11 6 SW 0,0
31.07.2020 22:00:00 19,8 16,1 - 8 4 SW 0,0
31.07.2020 21:00:00 22,3 16,1 - 11 6 WSW 0,0
31.07.2020 20:00:00 23,8 15,2 - 15 8 SW 0,0
31.07.2020 19:00:00 25,9 16,0 - 13 7 SSW 0,0
31.07.2020 18:00:00 27,5 14,3 - 13 7 S 0,0
31.07.2020 17:00:00 29,4 14,2 - 16 9 SSW 0,0
31.07.2020 16:00:00 33,3 14,2 - 21 11 S 0,0
31.07.2020 15:00:00 35,3 13,4 - 18 10 S 0,0
31.07.2020 14:00:00 35,5 13,2 - 18 10 SSE 0,0
31.07.2020 13:00:00 34,7 12,5 - 18 10 SSE 0,0
31.07.2020 12:00:00 32,9 11,1 - 18 10 SE 0,0
31.07.2020 11:00:00 31,0 12,2 - 15 8 SSE 0,0
31.07.2020 10:00:00 28,2 12,7 19,7 13 7 SE 0,0
31.07.2020 09:00:00 25,4 12,0 - 8 4 SE 0,0
31.07.2020 08:00:00 22,9 12,5 - 8 4 SE 0,0
31.07.2020 07:00:00 16,9 12,8 - 4 2 N 0,0
31.07.2020 06:00:00 13,6 11,9 - 4 2 E 0,0
31.07.2020 05:00:00 13,3 11,4 - 4 2 NNW 0,0
31.07.2020 04:00:00 16,7 11,5 - 5 3 ENE 0,0
31.07.2020 03:00:00 17,9 11,3 - 5 3 E 0,0
31.07.2020 02:00:00 19,1 11,0 - 8 4 E 0,0
31.07.2020 01:00:00 19,6 10,7 - 9 5 ESE 0,0
31.07.2020 00:00:00 16,9 10,6 - 4 2 E 0,0
30.07.2020 23:00:00 16,3 9,8 - 4 2 ESE 0,0
30.07.2020 22:00:00 17,8 9,3 - 4 2 ESE 0,0
30.07.2020 21:00:00 20,6 8,9 - 4 2 SE 0,0
30.07.2020 20:00:00 25,2 8,2 - 8 4 SSE 0,0
30.07.2020 19:00:00 26,6 8,1 - 9 5 SSE 0,0
30.07.2020 18:00:00 27,2 6,8 - 13 7 SSE 0,0
30.07.2020 17:00:00 28,0 9,1 - 11 6 S 0,0
30.07.2020 16:00:00 28,0 8,1 - 9 5 S 0,0
30.07.2020 15:00:00 27,6 7,1 - 11 6 S 0,0
30.07.2020 14:00:00 27,1 9,6 - 13 7 S 0,0
30.07.2020 13:00:00 26,1 10,9 - 11 6 S 0,0
30.07.2020 12:00:00 24,6 11,6 - 8 4 SSW 0,0
30.07.2020 11:00:00 22,7 10,4 - 8 4 S 0,0
30.07.2020 10:00:00 20,7 10,5 18,7 9 5 SE 0,0
30.07.2020 09:00:00 19,5 12,0 - 5 3 S 0,0
30.07.2020 08:00:00 16,1 12,6 - 2 1 WNW 0,0
30.07.2020 07:00:00 12,8 12,7 - 2 1 SSE 0,0
30.07.2020 06:00:00 9,6 9,2 - 4 2 SSE 0,0
30.07.2020 05:00:00 9,8 9,1 - 2 1 SE 0,0
30.07.2020 04:00:00 10,6 9,7 - 4 2 S 0,0
30.07.2020 03:00:00 11,4 9,6 - 2 1 SW 0,0

tt = temperature
td = dewpoint
tt -20cm = temperature -20cm
ff = wind speed
dd = wind direction
rr = precipitation

Next stations